createdAt,value
2023-10-30T00:01:40.071Z,87779.84
2023-10-30T00:04:25.183Z,87760.88
2023-10-30T00:07:10.240Z,87751.13
2023-10-30T00:09:55.303Z,87750.25
2023-10-30T00:12:40.490Z,87754.28
2023-10-30T00:15:25.554Z,87750.72
2023-10-30T00:18:10.855Z,87743.28
2023-10-30T00:20:56.014Z,87742.19
2023-10-30T00:23:41.061Z,87748.97
2023-10-30T00:26:26.185Z,87752.25
2023-10-30T00:29:11.166Z,87743.34
2023-10-30T00:31:56.364Z,87745.56
2023-10-30T00:34:41.445Z,87744.91
2023-10-30T00:37:26.535Z,87739.13
2023-10-30T00:40:11.611Z,87736.38
2023-10-30T00:42:56.759Z,87732.75
2023-10-30T00:45:41.966Z,87742.50
2023-10-30T00:48:26.910Z,87745.56
2023-10-30T00:51:12.221Z,87742.56
2023-10-30T00:53:57.049Z,87749.19
2023-10-30T00:56:42.332Z,87751.78
2023-10-30T00:59:27.532Z,87749.50
2023-10-30T01:02:12.612Z,87749.50
2023-10-30T01:04:57.930Z,87758.72
2023-10-30T01:07:42.731Z,87758.31
2023-10-30T01:10:27.839Z,87759.31
2023-10-30T01:13:12.815Z,87753.63
2023-10-30T01:15:58.227Z,87757.47
2023-10-30T01:18:43.297Z,87752.66
2023-10-30T01:21:28.215Z,87754.41
2023-10-30T01:24:13.416Z,87752.34
2023-10-30T01:26:58.326Z,87744.50
2023-10-30T01:29:43.561Z,87731.81
2023-10-30T01:32:28.592Z,87729.59
2023-10-30T01:35:13.788Z,87724.09
2023-10-30T01:37:58.884Z,87726.38
2023-10-30T01:40:43.988Z,87719.78
2023-10-30T01:43:29.167Z,87714.94
2023-10-30T01:46:14.142Z,87707.66
2023-10-30T01:48:59.247Z,87711.34
2023-10-30T01:51:44.280Z,87712.53
2023-10-30T01:54:29.380Z,87709.94
2023-10-30T01:57:14.376Z,87702.81
2023-10-30T01:59:59.375Z,87693.81
2023-10-30T02:02:44.649Z,87695.88
2023-10-30T02:05:29.553Z,87690.50
2023-10-30T02:08:14.749Z,87698.19
2023-10-30T02:10:59.795Z,87711.25
2023-10-30T02:13:44.994Z,87714.78
2023-10-30T02:16:30.006Z,87718.63
2023-10-30T02:19:15.195Z,87707.41
2023-10-30T02:22:00.171Z,87708.47
2023-10-30T02:24:45.299Z,87714.56
2023-10-30T02:27:30.507Z,87696.50
2023-10-30T02:30:15.576Z,87690.75
2023-10-30T02:33:00.533Z,87679.75
2023-10-30T02:35:45.604Z,87685.16
2023-10-30T02:38:30.874Z,87678.00
2023-10-30T02:41:16.060Z,87666.16
2023-10-30T02:44:01.228Z,87665.63
2023-10-30T02:46:46.393Z,87653.50
2023-10-30T02:49:31.420Z,87664.31
2023-10-30T02:52:16.648Z,87665.41
2023-10-30T02:55:01.806Z,87668.09
2023-10-30T02:57:47.000Z,87666.53
2023-10-30T03:00:31.991Z,87672.31
2023-10-30T03:03:17.193Z,87669.84
2023-10-30T03:06:02.204Z,87670.38
2023-10-30T03:08:47.281Z,87672.16
2023-10-30T03:11:32.410Z,87682.44
2023-10-30T03:14:17.473Z,87673.75
2023-10-30T03:17:02.646Z,87680.44
2023-10-30T03:19:48.051Z,87687.50
2023-10-30T03:22:32.988Z,87690.28
2023-10-30T03:25:18.169Z,87697.84
2023-10-30T03:28:03.125Z,87683.13
2023-10-30T03:30:48.296Z,87690.31
2023-10-30T03:33:33.291Z,87691.00
2023-10-30T03:36:18.456Z,87691.72
2023-10-30T03:39:03.626Z,87686.16
2023-10-30T03:41:48.783Z,87681.44
2023-10-30T03:44:33.899Z,87695.16
2023-10-30T03:47:18.939Z,87689.56
2023-10-30T03:50:04.152Z,87690.56
2023-10-30T03:52:49.240Z,87699.94
2023-10-30T03:55:34.411Z,87699.09
2023-10-30T03:58:19.482Z,87702.25
2023-10-30T04:01:04.563Z,87699.66
2023-10-30T04:03:49.785Z,87698.09
2023-10-30T04:06:34.772Z,87689.19
2023-10-30T04:09:20.049Z,87695.09
2023-10-30T04:12:05.040Z,87702.59
2023-10-30T04:14:50.395Z,87697.25
2023-10-30T04:17:35.489Z,87688.94
2023-10-30T04:20:20.585Z,87707.78
2023-10-30T04:23:05.700Z,87696.53
2023-10-30T04:25:50.624Z,87695.00
2023-10-30T04:28:35.973Z,87693.06
2023-10-30T04:31:20.959Z,87693.97
2023-10-30T04:34:06.162Z,87694.13
2023-10-30T04:36:51.269Z,87678.88
2023-10-30T04:39:36.333Z,87689.81
2023-10-30T04:42:21.581Z,87687.81
2023-10-30T04:45:06.544Z,87682.13
2023-10-30T04:47:51.861Z,87672.38
2023-10-30T04:50:36.796Z,87669.09
2023-10-30T04:53:22.181Z,87675.03
2023-10-30T04:56:07.336Z,87670.66
2023-10-30T04:58:52.504Z,87677.41
2023-10-30T05:01:37.681Z,87671.69
2023-10-30T05:04:22.776Z,87670.84
2023-10-30T05:07:08.174Z,87666.31
2023-10-30T05:09:53.173Z,87672.97
2023-10-30T05:12:38.483Z,87660.09
2023-10-30T05:15:23.565Z,87668.06
2023-10-30T05:18:08.884Z,87667.38
2023-10-30T05:20:54.033Z,87665.78
2023-10-30T05:23:38.794Z,87663.88
2023-10-30T05:26:23.918Z,87662.63
2023-10-30T05:29:09.041Z,87663.19
2023-10-30T05:31:54.150Z,87663.19
2023-10-30T05:34:40.718Z,87661.25
2023-10-30T05:37:26.838Z,87657.91
2023-10-30T05:40:12.675Z,87661.84
2023-10-30T05:42:57.496Z,87661.84
2023-10-30T05:45:42.764Z,87662.84
2023-10-30T05:48:27.838Z,87642.28
2023-10-30T05:51:13.143Z,87642.44
2023-10-30T05:53:58.347Z,87635.81
2023-10-30T05:56:43.484Z,87641.75
2023-10-30T05:59:28.623Z,87650.84
2023-10-30T06:02:13.621Z,87645.25
2023-10-30T06:04:59.050Z,87632.97
2023-10-30T06:07:44.103Z,87638.41
2023-10-30T06:10:29.223Z,87627.84
2023-10-30T06:13:14.195Z,87630.97
2023-10-30T06:15:59.246Z,87634.75
2023-10-30T06:18:44.452Z,87637.66
2023-10-30T06:21:29.567Z,87623.44
2023-10-30T06:24:14.594Z,87615.88
2023-10-30T06:26:59.624Z,87631.63
2023-10-30T06:29:44.843Z,87623.41
2023-10-30T06:32:29.980Z,87617.81
2023-10-30T06:35:15.161Z,87619.34
2023-10-30T06:38:00.222Z,87623.81
2023-10-30T06:40:45.348Z,87622.72
2023-10-30T06:43:30.530Z,87619.66
2023-10-30T06:46:15.497Z,87611.34
2023-10-30T06:49:00.670Z,87618.03
2023-10-30T06:51:45.840Z,87616.56
2023-10-30T06:54:31.048Z,87620.06
2023-10-30T06:57:16.213Z,87624.94
2023-10-30T07:00:01.216Z,87624.09
2023-10-30T07:02:46.370Z,87622.91
2023-10-30T07:05:31.336Z,87628.72
2023-10-30T07:08:16.581Z,87628.94
2023-10-30T07:11:01.592Z,87615.31
2023-10-30T07:13:46.788Z,87626.88
2023-10-30T07:16:32.026Z,87621.41
2023-10-30T07:19:17.077Z,87622.38
2023-10-30T07:22:02.360Z,87626.09
2023-10-30T07:24:47.502Z,87631.06
2023-10-30T07:27:32.599Z,87630.00
2023-10-30T07:30:17.663Z,87619.84
2023-10-30T07:33:02.932Z,87617.25
2023-10-30T07:35:48.963Z,87620.28
2023-10-30T07:38:34.119Z,87606.41
2023-10-30T07:41:19.394Z,87609.13
2023-10-30T07:44:04.441Z,87603.66
2023-10-30T07:46:49.656Z,87605.00
2023-10-30T07:49:34.663Z,87601.56
2023-10-30T07:52:19.883Z,87597.44
2023-10-30T07:55:05.007Z,87602.56
2023-10-30T07:57:50.191Z,87598.28
2023-10-30T08:00:44.261Z,87588.66
2023-10-30T08:03:39.866Z,87583.41
2023-10-30T08:06:24.793Z,87580.25
2023-10-30T08:09:09.852Z,87576.38
2023-10-30T08:11:54.921Z,87562.31
2023-10-30T08:14:39.989Z,87557.78
2023-10-30T08:17:24.969Z,87553.38
2023-10-30T08:20:10.168Z,87554.47
2023-10-30T08:22:55.171Z,87557.22
2023-10-30T08:25:40.183Z,87545.50
2023-10-30T08:28:25.454Z,87540.81
2023-10-30T08:31:10.596Z,87535.72
2023-10-30T08:33:55.717Z,87535.56
2023-10-30T08:36:40.680Z,87544.25
2023-10-30T08:39:25.907Z,87539.25
2023-10-30T08:42:10.883Z,87552.19
2023-10-30T08:44:56.017Z,87564.19
2023-10-30T08:47:41.073Z,87555.06
2023-10-30T08:50:26.697Z,87565.97
2023-10-30T08:53:11.944Z,87562.69
2023-10-30T08:55:58.889Z,87565.19
2023-10-30T08:58:44.131Z,87580.06
2023-10-30T09:01:29.199Z,87581.19
2023-10-30T09:04:14.454Z,87575.78
2023-10-30T09:06:59.490Z,87560.22
2023-10-30T09:09:44.432Z,87562.56
2023-10-30T09:12:29.677Z,87576.38
2023-10-30T09:15:14.619Z,87580.34
2023-10-30T09:17:59.783Z,87572.06
2023-10-30T09:20:44.703Z,87565.72
2023-10-30T09:23:29.786Z,87573.16
2023-10-30T09:26:14.925Z,87561.13
2023-10-30T09:29:00.041Z,87567.31
2023-10-30T09:31:45.317Z,87558.59
2023-10-30T09:34:30.352Z,87549.31
2023-10-30T09:37:15.570Z,87550.63
2023-10-30T09:40:00.737Z,87550.41
2023-10-30T09:42:45.955Z,87547.63
2023-10-30T09:45:31.159Z,87549.81
2023-10-30T09:48:16.075Z,87562.91
2023-10-30T09:51:01.259Z,87541.75
2023-10-30T09:53:46.313Z,87544.56
2023-10-30T09:56:31.585Z,87547.50
2023-10-30T09:59:16.604Z,87538.97
2023-10-30T10:02:02.066Z,87542.34
2023-10-30T10:04:47.329Z,87536.88
2023-10-30T10:07:32.408Z,87534.63
2023-10-30T10:10:17.585Z,87527.09
2023-10-30T10:13:02.717Z,87516.59
2023-10-30T10:15:47.855Z,87506.75
2023-10-30T10:18:32.715Z,87511.13
2023-10-30T10:21:17.883Z,87511.34
2023-10-30T10:24:03.157Z,87505.41
2023-10-30T10:26:48.079Z,87498.22
2023-10-30T10:29:33.327Z,87497.63
2023-10-30T10:32:18.353Z,87495.13
2023-10-30T10:35:03.530Z,87496.38
2023-10-30T10:37:48.529Z,87485.19
2023-10-30T10:40:33.786Z,87487.25
2023-10-30T10:43:18.846Z,87486.91
2023-10-30T10:46:04.098Z,87468.28
2023-10-30T10:48:49.165Z,87455.28
2023-10-30T10:51:34.107Z,87462.28
2023-10-30T10:54:19.200Z,87458.59
2023-10-30T10:57:04.347Z,87447.06
2023-10-30T10:59:49.630Z,87440.66
2023-10-30T11:02:34.561Z,87430.38
2023-10-30T11:05:19.585Z,87433.09
2023-10-30T11:08:04.718Z,87420.97
2023-10-30T11:10:49.901Z,87413.06
2023-10-30T11:13:35.141Z,87393.38
2023-10-30T11:16:20.262Z,87379.22
2023-10-30T11:19:05.375Z,87362.72
2023-10-30T11:21:50.644Z,87350.78
2023-10-30T11:24:35.657Z,87345.72
2023-10-30T11:27:20.643Z,87334.22
2023-10-30T11:30:05.583Z,87331.94
2023-10-30T11:32:50.946Z,87335.38
2023-10-30T11:35:35.907Z,87331.66
2023-10-30T11:38:21.119Z,87319.38
2023-10-30T11:41:06.266Z,87310.91
2023-10-30T11:43:51.471Z,87306.97
2023-10-30T11:46:36.728Z,87295.88
2023-10-30T11:49:21.611Z,87283.41
2023-10-30T11:52:06.915Z,87276.84
2023-10-30T11:54:52.484Z,87275.69
2023-10-30T11:57:38.322Z,87269.34
2023-10-30T12:00:23.211Z,87256.13
2023-10-30T12:03:08.226Z,87242.03
2023-10-30T12:05:53.391Z,87249.44
2023-10-30T12:08:38.380Z,87229.25
2023-10-30T12:11:23.543Z,87219.78
2023-10-30T12:14:08.536Z,87212.75
2023-10-30T12:16:53.791Z,87207.19
2023-10-30T12:19:38.742Z,87211.56
2023-10-30T12:22:24.100Z,87204.44
2023-10-30T12:25:09.146Z,87202.06
2023-10-30T12:27:54.283Z,87188.38
2023-10-30T12:30:39.502Z,87188.09
2023-10-30T12:33:24.451Z,87189.28
2023-10-30T12:36:09.500Z,87179.34
2023-10-30T12:38:54.601Z,87175.13
2023-10-30T12:41:39.706Z,87167.16
2023-10-30T12:44:24.781Z,87164.88
2023-10-30T12:47:12.452Z,87157.75
2023-10-30T12:49:57.520Z,87146.13
2023-10-30T12:52:42.557Z,87148.78
2023-10-30T12:55:27.755Z,87128.19
2023-10-30T12:58:12.769Z,87133.34
2023-10-30T13:03:45.662Z,87124.81
2023-10-30T13:06:30.700Z,87112.50
2023-10-30T13:09:15.752Z,87115.94
2023-10-30T13:12:01.009Z,87126.63
2023-10-30T13:14:46.169Z,87129.22
2023-10-30T13:17:31.287Z,87121.03
2023-10-30T13:20:16.252Z,87089.44
2023-10-30T13:23:01.406Z,87088.84
2023-10-30T13:25:46.419Z,87075.97
2023-10-30T13:28:31.634Z,87060.97
2023-10-30T13:31:16.749Z,87059.00
2023-10-30T13:34:02.058Z,87052.47
2023-10-30T13:36:47.096Z,87042.63
2023-10-30T13:39:32.145Z,87041.94
2023-10-30T13:42:17.351Z,87025.56
2023-10-30T13:45:02.341Z,87030.91
2023-10-30T13:47:47.611Z,87033.38
2023-10-30T13:50:32.731Z,87033.53
2023-10-30T13:53:17.876Z,87032.69
2023-10-30T13:56:02.991Z,87036.50
2023-10-30T13:58:48.105Z,87040.00
2023-10-30T14:01:33.455Z,87036.91
2023-10-30T14:04:18.633Z,87035.44
2023-10-30T14:07:03.846Z,87038.19
2023-10-30T14:09:48.877Z,87048.41
2023-10-30T14:12:33.747Z,87052.22
2023-10-30T14:15:18.794Z,87045.47
2023-10-30T14:18:04.048Z,87054.47
2023-10-30T14:20:49.308Z,87052.31
2023-10-30T14:23:34.419Z,87033.97
2023-10-30T14:26:19.593Z,87031.44
2023-10-30T14:29:04.519Z,87045.19
2023-10-30T14:31:49.762Z,87046.38
2023-10-30T14:34:35.017Z,87032.91
2023-10-30T14:37:20.051Z,87033.19
2023-10-30T14:40:05.289Z,87025.69
2023-10-30T14:42:50.216Z,87023.75
2023-10-30T14:45:35.319Z,87022.28
2023-10-30T14:48:20.151Z,87030.84
2023-10-30T14:51:05.372Z,87027.53
2023-10-30T14:53:50.536Z,87022.28
2023-10-30T14:56:35.545Z,87033.28
2023-10-30T14:59:20.717Z,87032.50
2023-10-30T15:02:05.603Z,87019.09
2023-10-30T15:04:51.112Z,87013.34
2023-10-30T15:07:36.428Z,87004.19
2023-10-30T15:10:21.543Z,87008.75
2023-10-30T15:13:06.744Z,87016.44
2023-10-30T15:15:51.809Z,87028.41
2023-10-30T15:18:36.899Z,87028.16
2023-10-30T15:21:21.990Z,87021.94
2023-10-30T15:24:07.071Z,87027.88
2023-10-30T15:26:52.121Z,87037.25
2023-10-30T15:29:37.341Z,87034.22
2023-10-30T15:32:22.475Z,87040.19
2023-10-30T15:35:07.589Z,87039.88
2023-10-30T15:37:52.738Z,87033.16
2023-10-30T15:40:37.772Z,87042.63
2023-10-30T15:43:22.979Z,87047.66
2023-10-30T15:46:07.891Z,87052.38
2023-10-30T15:48:52.988Z,87050.91
2023-10-30T15:51:38.091Z,87053.97
2023-10-30T16:00:03.273Z,87060.13
2023-10-30T16:02:48.301Z,87060.25
2023-10-30T16:05:47.290Z,87067.31
2023-10-30T16:14:13.597Z,87046.22
2023-10-30T16:20:21.477Z,87038.25
2023-10-30T16:22:51.507Z,87045.63
2023-10-30T16:25:36.664Z,87036.88
2023-10-30T16:28:21.809Z,87038.34
2023-10-30T16:31:06.848Z,87038.13
2023-10-30T16:33:51.792Z,87038.44
2023-10-30T16:36:36.706Z,87039.94
2023-10-30T16:39:21.906Z,87037.84
2023-10-30T16:42:06.900Z,87039.16
2023-10-30T16:44:52.130Z,87038.31
2023-10-30T16:47:37.254Z,87037.50
2023-10-30T16:50:22.358Z,87035.59
2023-10-30T16:53:07.524Z,87047.66
2023-10-30T16:55:52.479Z,87034.88
2023-10-30T16:58:37.791Z,87034.56
2023-10-30T17:01:22.870Z,87034.56
2023-10-30T17:04:08.032Z,87039.66
2023-10-30T17:06:53.049Z,87051.56
2023-10-30T17:09:38.227Z,87060.00
2023-10-30T17:12:23.488Z,87076.94
2023-10-30T17:15:08.711Z,87085.34
2023-10-30T17:17:53.746Z,87084.16
2023-10-30T17:20:38.914Z,87090.88
2023-10-30T17:23:24.152Z,87093.63
2023-10-30T17:26:09.182Z,87095.38
2023-10-30T17:28:54.330Z,87094.56
2023-10-30T17:31:39.488Z,87101.34
2023-10-30T17:34:24.559Z,87095.44
2023-10-30T17:37:09.665Z,87102.91
2023-10-30T17:39:55.020Z,87100.19
2023-10-30T17:42:39.886Z,87111.19
2023-10-30T17:45:24.937Z,87101.28
2023-10-30T17:48:10.176Z,87105.13
2023-10-30T17:50:55.230Z,87103.53
2023-10-30T17:53:40.338Z,87106.69
2023-10-30T17:56:25.571Z,87113.34
2023-10-30T17:59:10.572Z,87111.16
2023-10-30T18:01:55.886Z,87110.91
2023-10-30T18:04:41.059Z,87117.78
2023-10-30T18:07:26.021Z,87117.03
2023-10-30T18:10:11.154Z,87116.63
2023-10-30T18:12:56.333Z,87112.38
2023-10-30T18:15:41.669Z,87120.09
2023-10-30T18:18:26.844Z,87125.03
2023-10-30T18:21:11.941Z,87120.09
2023-10-30T18:23:56.807Z,87121.34
2023-10-30T18:26:41.941Z,87120.13
2023-10-30T18:29:29.080Z,87122.50
2023-10-30T18:32:14.019Z,87123.09
2023-10-30T18:34:59.273Z,87127.22
2023-10-30T18:37:44.304Z,87128.06
2023-10-30T18:40:29.465Z,87132.59
2023-10-30T18:43:14.299Z,87136.84
2023-10-30T18:45:59.446Z,87140.44
2023-10-30T18:48:44.630Z,87141.25
2023-10-30T18:51:29.684Z,87139.31
2023-10-30T18:54:14.900Z,87139.97
2023-10-30T18:56:59.866Z,87140.09
2023-10-30T18:59:44.996Z,87137.50
2023-10-30T19:02:30.112Z,87144.91
2023-10-30T19:05:15.418Z,87144.91
2023-10-30T19:08:00.494Z,87148.31
2023-10-30T19:10:45.425Z,87147.22
2023-10-30T19:13:30.561Z,87147.22
2023-10-30T19:16:15.634Z,87151.88
2023-10-30T19:19:00.648Z,87148.88
2023-10-30T19:21:45.661Z,87151.22
2023-10-30T19:24:30.796Z,87151.91
2023-10-30T19:27:15.731Z,87174.56
2023-10-30T19:30:00.855Z,87176.34
2023-10-30T19:32:45.981Z,87183.41
2023-10-30T19:35:31.111Z,87185.03
2023-10-30T19:38:16.355Z,87188.81
2023-10-30T19:41:01.482Z,87197.72
2023-10-30T19:43:46.550Z,87191.38
2023-10-30T19:46:36.581Z,87192.00
2023-10-30T19:49:24.190Z,87193.63
2023-10-30T19:52:09.458Z,87203.59
2023-10-30T19:54:54.701Z,87211.03
2023-10-30T19:57:39.626Z,87218.84
2023-10-30T20:00:24.835Z,87225.25
2023-10-30T20:03:09.794Z,87233.63
2023-10-30T20:05:55.142Z,87224.22
2023-10-30T20:08:40.209Z,87240.69
2023-10-30T20:11:25.276Z,87231.13
2023-10-30T20:14:10.458Z,87247.38
2023-10-30T20:16:55.521Z,87243.75
2023-10-30T20:19:40.685Z,87245.03
2023-10-30T20:22:25.658Z,87249.16
2023-10-30T20:25:10.692Z,87248.91
2023-10-30T20:27:55.822Z,87250.41
2023-10-30T20:30:40.990Z,87256.63
2023-10-30T20:33:26.100Z,87263.81
2023-10-30T20:36:11.205Z,87267.94
2023-10-30T20:38:56.496Z,87272.78
2023-10-30T20:41:41.502Z,87267.84
2023-10-30T20:44:26.763Z,87264.69
2023-10-30T20:47:11.713Z,87264.75
2023-10-30T20:49:56.944Z,87275.06
2023-10-30T20:52:41.978Z,87282.22
2023-10-30T20:55:27.019Z,87284.44
2023-10-30T20:58:12.229Z,87291.59
2023-10-30T21:00:57.285Z,87290.41
2023-10-30T21:03:42.643Z,87289.31
2023-10-30T21:06:27.459Z,87289.19
2023-10-30T21:09:12.572Z,87295.63
2023-10-30T21:11:57.614Z,87305.81
2023-10-30T21:14:42.680Z,87314.88
2023-10-30T21:17:27.929Z,87312.25
2023-10-30T21:20:12.928Z,87314.59
2023-10-30T21:22:57.981Z,87324.91
2023-10-30T21:25:42.973Z,87328.63
2023-10-30T21:28:28.266Z,87326.16
2023-10-30T21:31:13.522Z,87327.69
2023-10-30T21:33:58.436Z,87331.28
2023-10-30T21:36:43.579Z,87322.47
2023-10-30T21:39:28.648Z,87324.50
2023-10-30T21:42:13.834Z,87328.31
2023-10-30T21:44:58.813Z,87316.19
2023-10-30T21:47:43.962Z,87313.06
2023-10-30T21:50:29.139Z,87315.13
2023-10-30T21:53:14.269Z,87309.66
2023-10-30T21:55:59.400Z,87309.25
2023-10-30T21:58:44.401Z,87303.88
2023-10-30T22:01:29.615Z,87307.00
2023-10-30T22:04:14.679Z,87303.63
2023-10-30T22:06:59.842Z,87307.50
2023-10-30T22:09:44.881Z,87304.22
2023-10-30T22:12:30.131Z,87301.25
2023-10-30T22:15:15.283Z,87303.00
2023-10-30T22:18:00.607Z,87304.25
2023-10-30T22:20:45.749Z,87294.81
2023-10-30T22:23:30.805Z,87286.22
2023-10-30T22:26:15.969Z,87291.75
2023-10-30T22:29:00.992Z,87285.69
2023-10-30T22:31:46.067Z,87290.78
2023-10-30T22:34:31.192Z,87288.19
2023-10-30T22:37:16.195Z,87277.63
2023-10-30T22:40:01.430Z,87284.28
2023-10-30T22:42:46.505Z,87280.28
2023-10-30T22:45:31.768Z,87271.25
2023-10-30T22:48:16.785Z,87273.06
2023-10-30T22:51:02.012Z,87275.81
2023-10-30T22:53:47.008Z,87268.53
2023-10-30T22:56:32.171Z,87277.44
2023-10-30T22:59:17.529Z,87275.91
2023-10-30T23:02:02.512Z,87278.50
2023-10-30T23:04:47.747Z,87279.44
2023-10-30T23:07:33.273Z,87279.84
2023-10-30T23:10:18.703Z,87273.34
2023-10-30T23:13:03.831Z,87268.00
2023-10-30T23:15:48.753Z,87270.34
2023-10-30T23:18:33.951Z,87276.25
2023-10-30T23:21:19.007Z,87277.25
2023-10-30T23:24:04.029Z,87279.44
2023-10-30T23:26:49.069Z,87274.47
2023-10-30T23:29:34.175Z,87279.56
2023-10-30T23:32:19.250Z,87283.91
2023-10-30T23:35:04.459Z,87290.88
2023-10-30T23:37:49.563Z,87288.38
2023-10-30T23:40:34.528Z,87287.38
2023-10-30T23:43:19.799Z,87286.31
2023-10-30T23:46:04.908Z,87284.84
2023-10-30T23:48:50.009Z,87303.53
2023-10-30T23:51:35.157Z,87305.75
2023-10-30T23:54:25.360Z,87313.25
2023-10-30T23:57:15.902Z,87326.53
